Lake Wenatchee to Mission Ridge
Mission Ridge Ski Area
Latest observation 08/31 21:00 PDT
| Time (PDT) | Temp °F 6730' | Temp °F 5160' | Temp °F 4610' | RH % 6730' | RH % 5160' | Min mph 6730' | Spd mph 6730' | Gust mph 6730' | Dir ° 6730' | Pcp1 5160' | PcpSum in 5160' | 24Sno 5160' | SnoHt 5160' |
|---|---|---|---|---|---|---|---|---|---|---|---|---|---|
| 08/31 21:00 | 52 | – | 56 | 49 | – | 0 | 4 | 10 | 13 | – | – | – | – |
| 08/31 20:00 | 53 | – | 56 | 49 | – | 0 | 2 | 10 | 301 | – | – | – | – |
| 08/31 19:00 | 54 | – | 58 | 49 | – | 0 | 2 | 6 | 329 | – | – | – | – |
| 08/31 18:00 | 55 | – | 62 | 48 | – | 0 | 2 | 12 | 307 | – | – | – | – |
| 08/31 17:00 | 57 | – | 65 | 44 | – | 0 | 3 | 11 | 277 | – | – | – | – |
| 08/31 16:00 | 58 | – | 64 | 42 | – | 3 | 8 | 17 | 241 | – | – | – | – |
| 08/31 15:00 | 58 | – | 63 | 44 | – | 1 | 8 | 16 | 238 | – | – | – | – |
| 08/31 14:00 | 57 | – | 61 | 49 | – | 1 | 11 | 20 | 233 | – | – | – | – |
| 08/31 13:00 | 55 | – | 60 | 52 | – | 4 | 11 | 20 | 234 | – | – | – | – |
| 08/31 12:00 | 52 | – | 58 | 57 | – | 4 | 10 | 17 | 232 | – | – | – | – |
| 08/31 11:00 | 51 | – | 56 | 58 | – | 5 | 9 | 16 | 234 | – | – | – | – |
| 08/31 10:00 | 49 | – | 55 | 60 | – | 5 | 9 | 15 | 223 | – | – | – | – |
| 08/31 09:00 | 48 | – | 57 | 56 | – | 6 | 10 | 13 | 215 | – | – | – | – |
| 08/31 08:00 | 47 | – | 50 | 58 | – | 7 | 10 | 13 | 207 | – | – | – | – |
| 08/31 07:00 | 47 | – | 47 | 62 | – | 9 | 12 | 16 | 205 | – | – | – | – |
| 08/31 06:00 | 47 | – | 47 | 69 | – | 8 | 10 | 14 | 210 | – | – | – | – |
| 08/31 05:00 | 47 | – | 47 | 69 | – | 7 | 9 | 12 | 220 | – | – | – | – |
| 08/31 04:00 | 47 | – | 49 | 70 | – | 6 | 8 | 10 | 227 | – | – | – | – |
| 08/31 03:00 | 49 | – | 48 | 65 | – | 5 | 7 | 11 | 229 | – | – | – | – |
| 08/31 02:00 | 48 | – | 49 | 66 | – | 4 | 6 | 11 | 238 | – | – | – | – |
| 08/31 01:00 | 49 | – | 50 | 65 | – | 5 | 7 | 9 | 227 | – | – | – | – |
| 08/31 00:00 | 49 | – | 49 | 64 | – | 5 | 8 | 12 | 223 | – | – | – | – |
| 08/30 23:00 | 48 | – | 49 | 64 | – | 5 | 8 | 12 | 222 | – | – | – | – |
| 08/30 22:00 | 48 | – | 50 | 69 | – | 4 | 7 | 10 | 221 | – | – | – | – |
| 08/30 21:00 | 49 | – | 51 | 65 | – | 0 | 3 | 8 | 239 | – | – | – | – |
| 08/30 20:00 | 49 | – | 53 | 64 | – | 0 | 1 | 5 | 316 | – | – | – | – |
| 08/30 19:00 | 49 | – | 55 | 62 | – | 0 | 5 | 10 | 1 | – | – | – | – |
| 08/30 18:00 | 54 | – | 58 | 53 | – | 0 | 2 | 11 | 302 | – | – | – | – |
| 08/30 17:00 | 53 | – | 60 | 51 | – | 0 | 2 | 17 | 309 | – | – | – | – |
| 08/30 16:00 | 54 | – | 60 | 49 | – | 0 | 2 | 11 | 313 | – | – | – | – |
| 08/30 15:00 | 52 | – | 59 | 50 | – | 0 | 3 | 11 | 337 | – | – | – | – |
| 08/30 14:00 | 52 | – | 57 | 53 | – | 0 | 1 | 7 | 319 | – | – | – | – |
| 08/30 13:00 | 49 | – | 55 | 60 | – | 0 | 2 | 8 | 320 | – | – | – | – |
| 08/30 12:00 | 49 | – | 54 | 60 | – | 0 | 2 | 8 | 325 | – | – | – | – |
| 08/30 11:00 | 47 | – | 52 | 64 | – | 0 | 3 | 9 | 348 | – | – | – | – |
| 08/30 10:00 | 44 | – | 50 | 60 | – | 0 | 4 | 10 | 358 | – | – | – | – |
| 08/30 09:00 | 43 | – | 49 | 59 | – | 0 | 4 | 9 | 220 | – | – | – | – |
| 08/30 08:00 | 37 | – | 45 | 71 | – | 7 | 10 | 12 | 211 | – | – | – | – |
| 08/30 07:00 | 37 | – | 41 | 70 | – | 0 | 4 | 9 | 251 | – | – | – | – |
| 08/30 06:00 | 38 | – | 40 | 66 | – | 3 | 8 | 16 | 11 | – | – | – | – |
| 08/30 05:00 | 35 | – | 42 | 84 | – | 8 | 12 | 18 | 357 | – | – | – | – |
| 08/30 04:00 | 35 | – | 41 | 87 | – | 4 | 10 | 17 | 9 | – | – | – | – |
| 08/30 03:00 | 37 | – | 41 | 72 | – | 4 | 13 | 20 | 2 | – | – | – | – |
| 08/30 02:00 | 37 | – | 40 | 70 | – | 9 | 15 | 21 | 355 | – | – | – | – |
| 08/30 01:00 | 37 | – | 41 | 67 | – | 8 | 14 | 19 | 351 | – | – | – | – |
| 08/30 00:00 | 38 | – | 42 | 60 | – | 6 | 10 | 15 | 311 | – | – | – | – |
| 08/29 23:00 | 36 | – | 46 | 74 | – | 6 | 11 | 15 | 289 | – | – | – | – |
| 08/29 22:00 | 38 | – | 42 | 56 | – | 1 | 8 | 14 | 322 | – | – | – | – |
| 08/29 21:00 | 35 | – | 42 | 79 | – | 0 | 6 | 11 | 293 | – | – | – | – |
| 08/29 20:00 | 36 | – | 44 | 80 | – | 4 | 12 | 21 | 276 | – | – | – | – |
| 08/29 19:00 | 39 | – | 47 | 68 | – | 5 | 15 | 31 | 282 | – | – | – | – |
| 08/29 18:00 | 41 | – | 50 | 68 | – | 6 | 16 | 26 | 267 | – | – | – | – |
| 08/29 17:00 | 39 | – | 51 | 77 | – | 7 | 18 | 31 | 274 | – | – | – | – |
| 08/29 16:00 | 43 | – | 55 | 68 | – | 6 | 19 | 29 | 273 | – | – | – | – |
| 08/29 15:00 | 40 | – | 52 | 75 | – | 11 | 19 | 30 | 274 | – | – | – | – |
| 08/29 14:00 | 40 | – | 53 | 74 | – | 11 | 19 | 31 | 268 | – | – | – | – |
| 08/29 13:00 | 41 | – | 53 | 74 | – | 7 | 14 | 26 | 273 | – | – | – | – |
| 08/29 12:00 | 43 | – | 54 | 68 | – | 7 | 15 | 29 | 268 | – | – | – | – |
| 08/29 11:00 | 40 | – | 53 | 79 | – | 9 | 19 | 30 | 266 | – | – | – | – |
| 08/29 10:00 | 39 | – | 51 | 82 | – | 8 | 16 | 26 | 270 | – | – | – | – |
| 08/29 09:00 | 38 | – | 52 | 86 | – | 4 | 11 | 18 | 290 | – | – | – | – |
| 08/29 08:00 | 40 | – | 50 | 72 | – | 6 | 12 | 21 | 319 | – | – | – | – |
| 08/29 07:00 | 36 | – | 46 | 85 | – | 6 | 13 | 21 | 281 | – | – | – | – |
| 08/29 06:00 | 37 | – | 47 | 90 | – | 7 | 15 | 27 | 277 | – | – | – | – |
| 08/29 05:00 | 41 | – | 52 | 60 | – | 10 | 20 | 32 | 276 | – | – | – | – |
| 08/29 04:00 | 42 | – | 51 | 49 | – | 4 | 12 | 32 | 273 | – | – | – | – |
| 08/29 03:00 | 44 | – | 48 | 60 | – | 4 | 9 | 15 | 278 | – | – | – | – |
| 08/29 02:00 | 45 | – | 48 | 38 | – | 0 | 7 | 15 | 259 | – | – | – | – |
| 08/29 01:00 | 45 | – | 49 | 51 | – | 7 | 12 | 19 | 244 | – | – | – | – |
| 08/29 00:00 | 45 | – | 51 | 43 | – | 9 | 15 | 22 | 246 | – | – | – | – |
| 08/28 23:00 | 45 | – | 51 | 41 | – | 12 | 18 | 24 | 248 | – | – | – | – |
| 08/28 22:00 | 44 | – | 55 | 50 | – | 11 | 18 | 28 | 249 | – | – | – | – |
| 08/28 21:00 | 46 | – | 57 | 62 | – | 11 | 18 | 26 | 249 | – | – | – | – |
| 08/28 20:00 | 47 | – | 56 | 67 | – | 11 | 15 | 21 | 250 | – | – | – | – |
| 08/28 19:00 | 52 | – | 60 | 56 | – | 9 | 14 | 22 | 256 | – | – | – | – |
| 08/28 18:00 | 54 | – | 63 | 51 | – | 8 | 16 | 23 | 255 | – | – | – | – |
| 08/28 17:00 | 55 | – | 65 | 46 | – | 8 | 19 | 29 | 253 | – | – | – | – |
| 08/28 16:00 | 55 | – | 66 | 43 | – | 9 | 18 | 30 | 253 | – | – | – | – |
| 08/28 15:00 | 55 | – | 65 | 35 | – | 5 | 16 | 26 | 246 | – | – | – | – |
| 08/28 14:00 | 53 | – | 64 | 35 | – | 4 | 16 | 28 | 260 | – | – | – | – |
| 08/28 13:00 | 53 | – | 60 | 43 | – | 2 | 10 | 20 | 249 | – | – | – | – |
| 08/28 12:00 | 51 | – | 60 | 48 | – | 4 | 11 | 17 | 249 | – | – | – | – |
| 08/28 11:00 | 51 | – | 57 | 45 | – | 1 | 9 | 15 | 253 | – | – | – | – |
| 08/28 10:00 | 50 | – | 55 | 47 | – | 3 | 9 | 15 | 257 | – | – | – | – |
| 08/28 09:00 | 49 | – | 55 | 45 | – | 3 | 6 | 9 | 252 | – | – | – | – |
| 08/28 08:00 | 46 | – | 52 | 48 | – | 3 | 5 | 9 | 250 | – | – | – | – |
| 08/28 07:00 | 47 | – | 49 | 45 | – | 3 | 5 | 7 | 215 | – | – | – | – |
| 08/28 06:00 | 47 | – | 48 | 45 | – | 0 | 3 | 7 | 232 | – | – | – | – |
| 08/28 05:00 | 48 | – | 48 | 40 | – | 0 | 2 | 7 | 275 | – | – | – | – |
| 08/28 04:00 | 48 | – | 47 | 37 | – | 3 | 7 | 12 | 312 | – | – | – | – |
| 08/28 03:00 | 48 | – | 48 | 41 | – | 3 | 8 | 14 | 312 | – | – | – | – |
| 08/28 02:00 | 47 | – | 48 | 46 | – | 1 | 8 | 17 | 312 | – | – | – | – |
| 08/28 01:00 | 50 | – | 49 | 36 | – | 9 | 14 | 25 | 286 | – | – | – | – |
| 08/28 00:00 | 50 | – | 49 | 33 | – | 8 | 17 | 28 | 285 | – | – | – | – |
| 08/27 23:00 | 51 | – | 49 | 31 | – | 11 | 18 | 28 | 284 | – | – | – | – |
| 08/27 22:00 | 49 | – | 50 | 40 | – | 10 | 17 | 29 | 300 | – | – | – | – |
| 08/27 21:00 | 44 | – | 53 | 67 | – | 7 | 13 | 19 | 280 | – | – | – | – |
| 08/27 20:00 | 44 | – | 55 | 76 | – | 7 | 16 | 29 | 251 | – | – | – | – |
| 08/27 19:00 | 47 | – | 57 | 68 | – | 14 | 22 | 33 | 251 | – | – | – | – |
| 08/27 18:00 | 50 | – | 59 | 61 | – | 17 | 26 | 34 | 251 | – | – | – | – |
| 08/27 17:00 | 51 | – | 62 | 57 | – | 18 | 28 | 40 | 252 | – | – | – | – |
| 08/27 16:00 | 53 | – | 63 | 52 | – | 15 | 27 | 36 | 254 | – | – | – | – |
| 08/27 15:00 | 53 | – | 64 | 49 | – | 11 | 23 | 34 | 257 | – | – | – | – |
| 08/27 14:00 | 52 | – | 63 | 50 | – | 13 | 21 | 33 | 257 | – | – | – | – |
| 08/27 13:00 | 52 | – | 63 | 51 | – | 9 | 19 | 28 | 251 | – | – | – | – |
| 08/27 12:00 | 51 | – | 64 | 57 | – | 8 | 15 | 26 | 249 | – | – | – | – |
| 08/27 11:00 | 50 | – | 62 | 49 | – | 11 | 16 | 24 | 243 | – | – | – | – |
| 08/27 10:00 | 51 | – | 63 | 59 | – | 14 | 21 | 29 | 236 | – | – | – | – |
| 08/27 09:00 | 46 | – | 57 | 79 | – | 15 | 21 | 28 | 237 | – | – | – | – |
| 08/27 08:00 | 46 | – | 58 | 75 | – | 16 | 22 | 28 | 242 | – | – | – | – |
| 08/27 07:00 | 47 | – | 57 | 69 | – | 16 | 23 | 31 | 246 | – | – | – | – |
| 08/27 06:00 | 47 | – | 56 | 73 | – | 16 | 22 | 30 | 247 | – | – | – | – |
| 08/27 05:00 | 47 | – | 55 | 75 | – | 15 | 22 | 27 | 252 | – | – | – | – |
| 08/27 04:00 | 47 | – | 55 | 82 | – | 13 | 23 | 34 | 254 | – | – | – | – |
| 08/27 03:00 | 46 | – | 57 | 84 | – | 14 | 20 | 29 | 254 | – | – | – | – |
| 08/27 02:00 | 47 | – | 57 | 80 | – | 10 | 17 | 27 | 255 | – | – | – | – |
| 08/27 01:00 | 49 | – | 60 | 71 | – | 12 | 24 | 37 | 251 | – | – | – | – |
| 08/27 00:00 | 51 | – | 61 | 66 | – | 14 | 25 | 36 | 250 | – | – | – | – |
| 08/26 23:00 | 52 | – | 63 | 57 | – | 12 | 23 | 40 | 254 | – | – | – | – |
| 08/26 22:00 | 54 | – | 64 | 45 | – | 9 | 20 | 32 | 267 | – | – | – | – |
| 08/26 21:00 | 55 | – | 66 | 50 | – | 9 | 16 | 23 | 260 | – | – | – | – |
| 08/26 20:00 | 57 | – | 68 | 47 | – | 9 | 14 | 20 | 260 | – | – | – | – |
| 08/26 19:00 | 60 | – | 72 | 42 | – | 7 | 14 | 24 | 253 | – | – | – | – |
| 08/26 18:00 | 65 | – | 74 | 34 | – | 9 | 18 | 27 | 232 | – | – | – | – |
| 08/26 17:00 | 64 | – | 75 | 32 | – | 8 | 17 | 26 | 230 | – | – | – | – |
| 08/26 16:00 | 67 | – | 77 | 27 | – | 10 | 19 | 28 | 236 | – | – | – | – |
| 08/26 15:00 | 66 | – | 77 | 27 | – | 8 | 16 | 27 | 235 | – | – | – | – |
| 08/26 14:00 | 66 | – | 76 | 30 | – | 9 | 18 | 26 | 224 | – | – | – | – |
| 08/26 13:00 | 66 | – | 77 | 29 | – | 8 | 16 | 28 | 235 | – | – | – | – |
| 08/26 12:00 | 65 | – | 74 | 29 | – | 7 | 13 | 20 | 233 | – | – | – | – |
| 08/26 11:00 | 64 | – | 72 | 28 | – | 5 | 10 | 16 | 231 | – | – | – | – |
| 08/26 10:00 | 65 | – | 72 | 26 | – | 0 | 3 | 11 | 257 | – | – | – | – |
| 08/26 09:00 | 67 | – | 74 | 26 | – | 0 | 2 | 7 | 347 | – | – | – | – |
| 08/26 08:00 | 64 | – | 67 | 26 | – | 0 | 1 | 4 | 252 | – | – | – | – |
| 08/26 07:00 | 63 | – | 63 | 25 | – | 0 | 0 | 0 | 286 | – | – | – | – |
| 08/26 06:00 | 61 | – | 63 | 24 | – | 0 | 2 | 6 | 269 | – | – | – | – |
| 08/26 05:00 | 60 | – | 64 | 22 | – | 5 | 7 | 9 | 268 | – | – | – | – |
| 08/26 04:00 | 60 | – | 64 | 23 | – | 6 | 8 | 11 | 258 | – | – | – | – |
| 08/26 03:00 | 60 | – | 64 | 17 | – | 6 | 10 | 15 | 260 | – | – | – | – |
| 08/26 02:00 | 60 | – | 64 | 25 | – | 7 | 10 | 15 | 257 | – | – | – | – |
| 08/26 01:00 | 61 | – | 65 | 33 | – | 1 | 5 | 10 | 260 | – | – | – | – |
| 08/26 00:00 | 62 | – | 64 | 30 | – | 0 | 4 | 9 | 289 | – | – | – | – |
| 08/25 23:00 | 62 | – | 65 | 31 | – | 0 | 3 | 7 | 297 | – | – | – | – |
| 08/25 22:00 | 61 | – | 65 | 32 | – | 3 | 8 | 12 | 237 | – | – | – | – |
| 08/25 21:00 | 62 | – | 66 | 31 | – | 4 | 7 | 10 | 234 | – | – | – | – |
| 08/25 20:00 | 62 | – | 67 | 32 | – | 0 | 4 | 10 | 273 | – | – | – | – |
| 08/25 19:00 | 65 | – | 69 | 27 | – | 0 | 1 | 7 | 320 | – | – | – | – |
| 08/25 18:00 | 67 | – | 74 | 28 | – | 0 | 3 | 10 | 268 | – | – | – | – |
| 08/25 17:00 | 67 | – | 76 | 30 | – | 0 | 1 | 8 | 318 | – | – | – | – |
| 08/25 16:00 | 68 | – | 76 | 32 | – | 0 | 3 | 11 | 319 | – | – | – | – |
| 08/25 15:00 | 66 | – | 75 | 36 | – | 0 | 4 | 11 | 347 | – | – | – | – |
| 08/25 14:00 | 67 | – | 73 | 38 | – | 0 | 1 | 14 | 309 | – | – | – | – |
| 08/25 13:00 | 66 | – | 72 | 39 | – | 0 | 1 | 15 | 312 | – | – | – | – |
| 08/25 12:00 | 66 | – | 70 | 37 | – | 0 | 1 | 7 | 301 | – | – | – | – |
| 08/25 11:00 | 66 | – | 69 | 35 | – | 0 | 0 | 4 | 287 | – | – | – | – |
| 08/25 10:00 | 65 | – | 68 | 37 | – | 0 | 1 | 5 | 317 | – | – | – | – |
| 08/25 09:00 | 60 | – | 68 | 44 | – | 0 | 1 | 6 | 333 | – | – | – | – |
| 08/25 08:00 | 59 | – | 62 | 43 | – | 0 | 0 | 2 | 306 | – | – | – | – |
| 08/25 07:00 | 59 | – | 58 | 35 | – | 0 | 1 | 5 | 255 | – | – | – | – |
| 08/25 06:00 | 57 | – | 57 | 36 | – | 0 | 2 | 7 | 229 | – | – | – | – |
| 08/25 05:00 | 56 | – | 58 | 40 | – | 3 | 6 | 9 | 207 | – | – | – | – |
| 08/25 04:00 | 57 | – | 58 | 38 | – | 0 | 3 | 6 | 198 | – | – | – | – |
| 08/25 03:00 | 55 | – | 59 | 42 | – | 0 | 2 | 7 | 19 | – | – | – | – |
| 08/25 02:00 | 56 | – | 59 | 43 | – | 0 | 4 | 9 | 45 | – | – | – | – |
| 08/25 01:00 | 55 | – | 59 | 46 | – | 0 | 5 | 11 | 32 | – | – | – | – |
| 08/25 00:00 | 55 | – | 59 | 48 | – | 3 | 8 | 14 | 40 | – | – | – | – |
| 08/24 23:00 | 56 | – | 60 | 47 | – | 2 | 8 | 15 | 61 | – | – | – | – |
| 08/24 22:00 | 56 | – | 60 | 48 | – | 3 | 10 | 17 | 61 | – | – | – | – |

